sensor_id;sensor_type;location;lat;lon;timestamp;temperature;humidity
14735;DHT22;7458;49.002;8.472;2023-07-16T00:01:46;20.30;99.90
14735;DHT22;7458;49.002;8.472;2023-07-16T00:04:12;20.60;99.90
14735;DHT22;7458;49.002;8.472;2023-07-16T00:06:37;20.30;99.90
14735;DHT22;7458;49.002;8.472;2023-07-16T00:09:03;20.20;99.90
14735;DHT22;7458;49.002;8.472;2023-07-16T00:11:29;19.90;99.90
14735;DHT22;7458;49.002;8.472;2023-07-16T00:13:55;19.80;99.90
14735;DHT22;7458;49.002;8.472;2023-07-16T00:17:57;20.10;99.90
14735;DHT22;7458;49.002;8.472;2023-07-16T00:20:23;19.90;99.90
14735;DHT22;7458;49.002;8.472;2023-07-16T00:22:50;19.90;99.90
14735;DHT22;7458;49.002;8.472;2023-07-16T00:25:16;19.90;99.90
14735;DHT22;7458;49.002;8.472;2023-07-16T00:27:41;20.00;99.90
14735;DHT22;7458;49.002;8.472;2023-07-16T00:30:21;19.90;99.90
14735;DHT22;7458;49.002;8.472;2023-07-16T00:32:46;19.70;99.90
14735;DHT22;7458;49.002;8.472;2023-07-16T00:40:05;19.40;99.90
14735;DHT22;7458;49.002;8.472;2023-07-16T00:42:31;19.50;99.90
14735;DHT22;7458;49.002;8.472;2023-07-16T00:44:57;19.50;99.90
14735;DHT22;7458;49.002;8.472;2023-07-16T00:47:23;19.10;99.90
14735;DHT22;7458;49.002;8.472;2023-07-16T00:49:49;19.10;99.90
14735;DHT22;7458;49.002;8.472;2023-07-16T00:52:18;19.10;99.90
14735;DHT22;7458;49.002;8.472;2023-07-16T00:54:46;19.00;99.90
14735;DHT22;7458;49.002;8.472;2023-07-16T00:59:39;19.00;99.90
14735;DHT22;7458;49.002;8.472;2023-07-16T01:02:05;18.90;99.90
14735;DHT22;7458;49.002;8.472;2023-07-16T01:04:31;19.00;99.90
14735;DHT22;7458;49.002;8.472;2023-07-16T01:07:01;19.20;99.90
14735;DHT22;7458;49.002;8.472;2023-07-16T01:12:00;19.00;99.90
14735;DHT22;7458;49.002;8.472;2023-07-16T01:14:26;19.00;99.90
14735;DHT22;7458;49.002;8.472;2023-07-16T01:16:53;19.00;99.90
14735;DHT22;7458;49.002;8.472;2023-07-16T01:19:24;19.10;99.90
14735;DHT22;7458;49.002;8.472;2023-07-16T01:30:33;18.80;99.90
14735;DHT22;7458;49.002;8.472;2023-07-16T01:33:03;18.80;99.90
14735;DHT22;7458;49.002;8.472;2023-07-16T01:35:30;18.70;99.90
14735;DHT22;7458;49.002;8.472;2023-07-16T01:37:56;18.40;99.90
14735;DHT22;7458;49.002;8.472;2023-07-16T01:45:15;18.70;99.90
14735;DHT22;7458;49.002;8.472;2023-07-16T01:48:00;18.20;99.90
14735;DHT22;7458;49.002;8.472;2023-07-16T01:53:01;18.30;99.90
14735;DHT22;7458;49.002;8.472;2023-07-16T01:55:26;18.50;99.90
14735;DHT22;7458;49.002;8.472;2023-07-16T01:57:52;18.20;99.90
14735;DHT22;7458;49.002;8.472;2023-07-16T02:00:18;18.70;99.90
14735;DHT22;7458;49.002;8.472;2023-07-16T02:05:10;18.50;99.90
14735;DHT22;7458;49.002;8.472;2023-07-16T02:10:02;18.30;99.90
14735;DHT22;7458;49.002;8.472;2023-07-16T02:12:28;18.80;99.90
14735;DHT22;7458;49.002;8.472;2023-07-16T02:14:53;18.60;99.90
14735;DHT22;7458;49.002;8.472;2023-07-16T02:17:19;18.50;99.90
14735;DHT22;7458;49.002;8.472;2023-07-16T02:22:11;18.60;99.90
14735;DHT22;7458;49.002;8.472;2023-07-16T02:27:03;18.50;99.90
14735;DHT22;7458;49.002;8.472;2023-07-16T02:31:56;18.20;99.90
14735;DHT22;7458;49.002;8.472;2023-07-16T02:34:22;18.40;99.90
14735;DHT22;7458;49.002;8.472;2023-07-16T02:36:48;18.50;99.90
14735;DHT22;7458;49.002;8.472;2023-07-16T02:39:14;18.50;99.90
14735;DHT22;7458;49.002;8.472;2023-07-16T02:41:39;18.30;99.90
14735;DHT22;7458;49.002;8.472;2023-07-16T02:44:06;18.30;99.90
14735;DHT22;7458;49.002;8.472;2023-07-16T02:46:34;18.40;99.90
14735;DHT22;7458;49.002;8.472;2023-07-16T02:49:00;18.40;99.90
14735;DHT22;7458;49.002;8.472;2023-07-16T02:51:26;18.10;99.90
14735;DHT22;7458;49.002;8.472;2023-07-16T02:53:52;18.30;99.90
14735;DHT22;7458;49.002;8.472;2023-07-16T03:01:11;18.60;99.90
14735;DHT22;7458;49.002;8.472;2023-07-16T03:08:30;18.50;99.90
14735;DHT22;7458;49.002;8.472;2023-07-16T03:10:57;18.70;99.90
14735;DHT22;7458;49.002;8.472;2023-07-16T03:18:18;18.30;99.90
14735;DHT22;7458;49.002;8.472;2023-07-16T03:25:37;18.10;99.90
14735;DHT22;7458;49.002;8.472;2023-07-16T03:28:02;18.20;99.90
14735;DHT22;7458;49.002;8.472;2023-07-16T03:30:30;18.20;99.90
14735;DHT22;7458;49.002;8.472;2023-07-16T03:32:56;18.00;99.90
14735;DHT22;7458;49.002;8.472;2023-07-16T03:35:22;18.10;99.90
14735;DHT22;7458;49.002;8.472;2023-07-16T03:37:48;18.00;99.90
14735;DHT22;7458;49.002;8.472;2023-07-16T03:40:21;18.20;99.90
14735;DHT22;7458;49.002;8.472;2023-07-16T03:45:15;18.20;99.90
14735;DHT22;7458;49.002;8.472;2023-07-16T03:50:08;18.50;99.90
14735;DHT22;7458;49.002;8.472;2023-07-16T03:55:00;18.40;99.90
14735;DHT22;7458;49.002;8.472;2023-07-16T03:57:28;18.40;99.90
14735;DHT22;7458;49.002;8.472;2023-07-16T03:59:54;18.40;99.90
14735;DHT22;7458;49.002;8.472;2023-07-16T04:02:20;18.50;99.90
14735;DHT22;7458;49.002;8.472;2023-07-16T04:04:46;18.40;99.90
14735;DHT22;7458;49.002;8.472;2023-07-16T04:07:12;18.50;99.90
14735;DHT22;7458;49.002;8.472;2023-07-16T04:12:06;18.80;99.90
14735;DHT22;7458;49.002;8.472;2023-07-16T04:16:58;18.70;99.90
14735;DHT22;7458;49.002;8.472;2023-07-16T04:19:24;18.90;99.90
14735;DHT22;7458;49.002;8.472;2023-07-16T04:24:16;18.70;99.90
14735;DHT22;7458;49.002;8.472;2023-07-16T04:38:53;18.70;99.90
14735;DHT22;7458;49.002;8.472;2023-07-16T04:46:11;18.80;99.90
14735;DHT22;7458;49.002;8.472;2023-07-16T04:48:37;18.90;99.90
14735;DHT22;7458;49.002;8.472;2023-07-16T04:51:03;18.80;99.90
14735;DHT22;7458;49.002;8.472;2023-07-16T05:03:15;19.00;99.90
14735;DHT22;7458;49.002;8.472;2023-07-16T05:05:41;19.10;99.90
14735;DHT22;7458;49.002;8.472;2023-07-16T05:08:07;19.10;99.90
14735;DHT22;7458;49.002;8.472;2023-07-16T05:10:33;19.10;99.90
14735;DHT22;7458;49.002;8.472;2023-07-16T05:13:02;19.30;99.90
14735;DHT22;7458;49.002;8.472;2023-07-16T05:17:57;19.20;99.90
14735;DHT22;7458;49.002;8.472;2023-07-16T05:22:51;19.20;99.90
14735;DHT22;7458;49.002;8.472;2023-07-16T05:25:17;19.10;99.90
14735;DHT22;7458;49.002;8.472;2023-07-16T05:30:09;19.70;99.90
14735;DHT22;7458;49.002;8.472;2023-07-16T05:32:35;19.80;99.90
14735;DHT22;7458;49.002;8.472;2023-07-16T05:35:01;19.40;99.90
14735;DHT22;7458;49.002;8.472;2023-07-16T05:37:27;19.40;99.90
14735;DHT22;7458;49.002;8.472;2023-07-16T05:39:52;19.40;99.90
14735;DHT22;7458;49.002;8.472;2023-07-16T05:44:47;19.00;99.90
14735;DHT22;7458;49.002;8.472;2023-07-16T05:47:13;19.30;99.90
14735;DHT22;7458;49.002;8.472;2023-07-16T05:49:39;19.60;99.90
14735;DHT22;7458;49.002;8.472;2023-07-16T05:52:05;19.90;99.90
14735;DHT22;7458;49.002;8.472;2023-07-16T05:54:31;20.30;99.90
14735;DHT22;7458;49.002;8.472;2023-07-16T05:59:23;20.10;99.90
14735;DHT22;7458;49.002;8.472;2023-07-16T06:01:49;20.20;99.90
14735;DHT22;7458;49.002;8.472;2023-07-16T06:04:14;20.30;99.90
14735;DHT22;7458;49.002;8.472;2023-07-16T06:06:40;20.30;99.90
14735;DHT22;7458;49.002;8.472;2023-07-16T06:09:06;20.50;99.90
14735;DHT22;7458;49.002;8.472;2023-07-16T06:11:32;20.80;99.90
14735;DHT22;7458;49.002;8.472;2023-07-16T06:13:57;21.30;99.90
14735;DHT22;7458;49.002;8.472;2023-07-16T06:16:23;21.20;99.90
14735;DHT22;7458;49.002;8.472;2023-07-16T06:18:49;22.20;99.90
14735;DHT22;7458;49.002;8.472;2023-07-16T06:21:15;22.20;99.90
14735;DHT22;7458;49.002;8.472;2023-07-16T06:23:42;22.60;99.90
14735;DHT22;7458;49.002;8.472;2023-07-16T06:26:08;24.00;99.90
14735;DHT22;7458;49.002;8.472;2023-07-16T06:28:34;23.80;99.90
14735;DHT22;7458;49.002;8.472;2023-07-16T06:31:20;24.20;99.90
14735;DHT22;7458;49.002;8.472;2023-07-16T06:33:46;24.60;99.90
14735;DHT22;7458;49.002;8.472;2023-07-16T06:36:14;24.50;99.90
14735;DHT22;7458;49.002;8.472;2023-07-16T06:38:40;24.70;99.90
14735;DHT22;7458;49.002;8.472;2023-07-16T06:41:07;25.10;99.90
14735;DHT22;7458;49.002;8.472;2023-07-16T06:43:32;25.20;99.90
14735;DHT22;7458;49.002;8.472;2023-07-16T06:45:58;25.60;99.90
14735;DHT22;7458;49.002;8.472;2023-07-16T06:48:24;26.20;99.90
14735;DHT22;7458;49.002;8.472;2023-07-16T06:50:50;26.50;99.90
14735;DHT22;7458;49.002;8.472;2023-07-16T06:55:42;26.40;99.10
14735;DHT22;7458;49.002;8.472;2023-07-16T06:58:13;26.70;99.10
14735;DHT22;7458;49.002;8.472;2023-07-16T07:00:39;27.00;99.90
14735;DHT22;7458;49.002;8.472;2023-07-16T07:03:05;26.80;98.40
14735;DHT22;7458;49.002;8.472;2023-07-16T07:05:30;26.80;95.80
14735;DHT22;7458;49.002;8.472;2023-07-16T07:07:56;27.30;94.30
14735;DHT22;7458;49.002;8.472;2023-07-16T07:10:22;28.70;90.50
14735;DHT22;7458;49.002;8.472;2023-07-16T07:12:48;30.70;87.70
14735;DHT22;7458;49.002;8.472;2023-07-16T07:15:13;31.80;73.40
14735;DHT22;7458;49.002;8.472;2023-07-16T07:17:39;31.50;66.40
14735;DHT22;7458;49.002;8.472;2023-07-16T07:20:08;30.60;89.10
14735;DHT22;7458;49.002;8.472;2023-07-16T07:22:34;28.80;77.50
14735;DHT22;7458;49.002;8.472;2023-07-16T07:25:00;27.50;83.00
14735;DHT22;7458;49.002;8.472;2023-07-16T07:29:52;26.90;84.40
14735;DHT22;7458;49.002;8.472;2023-07-16T07:32:21;27.20;90.00
14735;DHT22;7458;49.002;8.472;2023-07-16T07:34:48;25.90;86.60
14735;DHT22;7458;49.002;8.472;2023-07-16T07:37:17;26.20;91.00
14735;DHT22;7458;49.002;8.472;2023-07-16T07:39:43;26.20;90.40
14735;DHT22;7458;49.002;8.472;2023-07-16T07:42:14;26.30;89.70
14735;DHT22;7458;49.002;8.472;2023-07-16T07:44:40;26.40;88.90
14735;DHT22;7458;49.002;8.472;2023-07-16T07:52:00;24.50;93.20
14735;DHT22;7458;49.002;8.472;2023-07-16T08:01:44;24.10;96.40
14735;DHT22;7458;49.002;8.472;2023-07-16T08:04:10;24.80;91.20
14735;DHT22;7458;49.002;8.472;2023-07-16T08:06:36;25.80;92.00
14735;DHT22;7458;49.002;8.472;2023-07-16T08:09:02;27.80;82.00
14735;DHT22;7458;49.002;8.472;2023-07-16T08:11:28;28.50;76.10
14735;DHT22;7458;49.002;8.472;2023-07-16T08:13:53;29.40;74.40
14735;DHT22;7458;49.002;8.472;2023-07-16T08:18:45;30.20;68.00
14735;DHT22;7458;49.002;8.472;2023-07-16T08:21:11;29.80;66.80
14735;DHT22;7458;49.002;8.472;2023-07-16T08:23:51;29.60;69.30
14735;DHT22;7458;49.002;8.472;2023-07-16T08:26:17;29.10;70.00
14735;DHT22;7458;49.002;8.472;2023-07-16T08:28:44;28.70;68.70
14735;DHT22;7458;49.002;8.472;2023-07-16T08:31:11;27.20;78.20
14735;DHT22;7458;49.002;8.472;2023-07-16T08:33:37;27.10;73.70
14735;DHT22;7458;49.002;8.472;2023-07-16T08:36:04;26.80;75.70
14735;DHT22;7458;49.002;8.472;2023-07-16T08:38:29;26.50;75.60
14735;DHT22;7458;49.002;8.472;2023-07-16T08:40:55;26.10;91.10
14735;DHT22;7458;49.002;8.472;2023-07-16T08:43:21;26.70;88.10
14735;DHT22;7458;49.002;8.472;2023-07-16T08:45:49;27.00;85.20
14735;DHT22;7458;49.002;8.472;2023-07-16T08:48:17;27.10;75.70
14735;DHT22;7458;49.002;8.472;2023-07-16T08:50:49;27.40;87.30
14735;DHT22;7458;49.002;8.472;2023-07-16T08:53:16;27.10;76.10
14735;DHT22;7458;49.002;8.472;2023-07-16T08:55:47;26.90;77.00
14735;DHT22;7458;49.002;8.472;2023-07-16T08:58:16;25.50;87.90
14735;DHT22;7458;49.002;8.472;2023-07-16T09:00:43;24.90;90.60
14735;DHT22;7458;49.002;8.472;2023-07-16T09:03:14;24.30;91.40
14735;DHT22;7458;49.002;8.472;2023-07-16T09:05:44;24.10;82.40
14735;DHT22;7458;49.002;8.472;2023-07-16T09:08:10;23.70;92.70
14735;DHT22;7458;49.002;8.472;2023-07-16T09:10:37;27.60;92.30
14735;DHT22;7458;49.002;8.472;2023-07-16T09:13:05;23.60;92.80
14735;DHT22;7458;49.002;8.472;2023-07-16T09:15:30;23.60;92.50
14735;DHT22;7458;49.002;8.472;2023-07-16T09:17:56;24.10;93.10
14735;DHT22;7458;49.002;8.472;2023-07-16T09:20:22;23.60;93.70
14735;DHT22;7458;49.002;8.472;2023-07-16T09:22:57;23.10;93.60
14735;DHT22;7458;49.002;8.472;2023-07-16T09:25:27;23.90;93.80
14735;DHT22;7458;49.002;8.472;2023-07-16T09:28:01;23.80;94.30
14735;DHT22;7458;49.002;8.472;2023-07-16T09:30:31;23.90;88.10
14735;DHT22;7458;49.002;8.472;2023-07-16T09:33:19;24.40;87.00
14735;DHT22;7458;49.002;8.472;2023-07-16T09:35:48;24.70;83.80
14735;DHT22;7458;49.002;8.472;2023-07-16T09:38:16;24.70;83.10
14735;DHT22;7458;49.002;8.472;2023-07-16T09:40:43;25.30;91.30
14735;DHT22;7458;49.002;8.472;2023-07-16T09:43:10;25.40;90.90
14735;DHT22;7458;49.002;8.472;2023-07-16T09:45:37;25.90;82.20
14735;DHT22;7458;49.002;8.472;2023-07-16T09:48:04;25.60;86.60
14735;DHT22;7458;49.002;8.472;2023-07-16T09:50:34;25.70;74.60
14735;DHT22;7458;49.002;8.472;2023-07-16T09:53:04;25.90;75.70
14735;DHT22;7458;49.002;8.472;2023-07-16T09:55:33;26.10;76.00
14735;DHT22;7458;49.002;8.472;2023-07-16T09:58:03;26.20;75.10
14735;DHT22;7458;49.002;8.472;2023-07-16T10:00:36;26.00;72.70
14735;DHT22;7458;49.002;8.472;2023-07-16T10:03:05;25.90;72.60
14735;DHT22;7458;49.002;8.472;2023-07-16T10:05:36;25.90;74.80
14735;DHT22;7458;49.002;8.472;2023-07-16T10:08:03;25.60;72.40
14735;DHT22;7458;49.002;8.472;2023-07-16T10:10:38;25.50;74.10
14735;DHT22;7458;49.002;8.472;2023-07-16T10:13:07;25.50;74.90
14735;DHT22;7458;49.002;8.472;2023-07-16T10:15:33;25.20;71.10
14735;DHT22;7458;49.002;8.472;2023-07-16T10:17:59;25.40;74.00
14735;DHT22;7458;49.002;8.472;2023-07-16T10:20:36;25.70;71.80
14735;DHT22;7458;49.002;8.472;2023-07-16T10:23:15;25.80;72.60
14735;DHT22;7458;49.002;8.472;2023-07-16T10:25:58;25.80;75.30
14735;DHT22;7458;49.002;8.472;2023-07-16T10:28:25;25.80;72.50
14735;DHT22;7458;49.002;8.472;2023-07-16T10:30:51;25.40;85.20
14735;DHT22;7458;49.002;8.472;2023-07-16T10:33:17;25.60;72.20
14735;DHT22;7458;49.002;8.472;2023-07-16T10:35:44;25.70;71.60
14735;DHT22;7458;49.002;8.472;2023-07-16T10:38:11;25.80;71.10
14735;DHT22;7458;49.002;8.472;2023-07-16T10:40:41;26.00;69.60
14735;DHT22;7458;49.002;8.472;2023-07-16T10:43:08;26.30;67.70
14735;DHT22;7458;49.002;8.472;2023-07-16T10:45:34;26.60;68.50
14735;DHT22;7458;49.002;8.472;2023-07-16T10:48:00;27.10;78.00
14735;DHT22;7458;49.002;8.472;2023-07-16T10:50:26;27.00;67.00
14735;DHT22;7458;49.002;8.472;2023-07-16T10:52:56;26.80;66.30
14735;DHT22;7458;49.002;8.472;2023-07-16T10:55:22;26.80;66.00
14735;DHT22;7458;49.002;8.472;2023-07-16T10:57:50;26.80;66.60
14735;DHT22;7458;49.002;8.472;2023-07-16T11:00:17;26.70;77.40
14735;DHT22;7458;49.002;8.472;2023-07-16T11:02:43;26.60;66.50
14735;DHT22;7458;49.002;8.472;2023-07-16T11:05:14;27.50;77.80
14735;DHT22;7458;49.002;8.472;2023-07-16T11:07:47;27.30;66.40
14735;DHT22;7458;49.002;8.472;2023-07-16T11:10:17;27.40;79.00
14735;DHT22;7458;49.002;8.472;2023-07-16T11:12:44;27.50;67.40
14735;DHT22;7458;49.002;8.472;2023-07-16T11:15:10;27.70;63.30
14735;DHT22;7458;49.002;8.472;2023-07-16T11:17:39;27.80;64.80
14735;DHT22;7458;49.002;8.472;2023-07-16T11:20:09;27.90;62.80
14735;DHT22;7458;49.002;8.472;2023-07-16T11:22:38;28.00;63.60
14735;DHT22;7458;49.002;8.472;2023-07-16T11:25:11;28.10;63.60
14735;DHT22;7458;49.002;8.472;2023-07-16T11:27:41;28.40;63.90
14735;DHT22;7458;49.002;8.472;2023-07-16T11:30:08;28.50;63.10
14735;DHT22;7458;49.002;8.472;2023-07-16T11:35:05;28.50;60.10
14735;DHT22;7458;49.002;8.472;2023-07-16T11:37:34;27.90;58.20
14735;DHT22;7458;49.002;8.472;2023-07-16T11:40:06;27.70;59.50
14735;DHT22;7458;49.002;8.472;2023-07-16T11:42:38;27.50;60.00
14735;DHT22;7458;49.002;8.472;2023-07-16T11:45:14;27.80;61.00
14735;DHT22;7458;49.002;8.472;2023-07-16T11:47:42;27.70;59.60
14735;DHT22;7458;49.002;8.472;2023-07-16T11:50:08;27.50;59.00
14735;DHT22;7458;49.002;8.472;2023-07-16T11:52:34;27.50;59.70
14735;DHT22;7458;49.002;8.472;2023-07-16T11:55:00;27.50;58.30
14735;DHT22;7458;49.002;8.472;2023-07-16T11:57:26;27.80;58.20
14735;DHT22;7458;49.002;8.472;2023-07-16T11:59:53;28.00;57.00
14735;DHT22;7458;49.002;8.472;2023-07-16T12:02:20;27.30;55.60
14735;DHT22;7458;49.002;8.472;2023-07-16T12:04:46;27.40;56.30
14735;DHT22;7458;49.002;8.472;2023-07-16T12:07:12;27.70;57.60
14735;DHT22;7458;49.002;8.472;2023-07-16T12:09:38;28.00;58.10
14735;DHT22;7458;49.002;8.472;2023-07-16T12:12:04;28.00;57.60
14735;DHT22;7458;49.002;8.472;2023-07-16T12:14:31;27.80;57.60
14735;DHT22;7458;49.002;8.472;2023-07-16T12:16:57;27.60;58.10
14735;DHT22;7458;49.002;8.472;2023-07-16T12:19:24;27.60;58.00
14735;DHT22;7458;49.002;8.472;2023-07-16T12:21:51;27.70;58.70
14735;DHT22;7458;49.002;8.472;2023-07-16T12:24:17;27.70;57.30
14735;DHT22;7458;49.002;8.472;2023-07-16T12:26:43;27.60;58.80
14735;DHT22;7458;49.002;8.472;2023-07-16T12:29:08;27.70;59.20
14735;DHT22;7458;49.002;8.472;2023-07-16T12:31:34;27.70;58.40
14735;DHT22;7458;49.002;8.472;2023-07-16T12:34:00;27.40;58.50
14735;DHT22;7458;49.002;8.472;2023-07-16T12:36:30;27.50;58.90
14735;DHT22;7458;49.002;8.472;2023-07-16T12:38:56;27.50;59.30
14735;DHT22;7458;49.002;8.472;2023-07-16T12:41:22;27.50;57.10
14735;DHT22;7458;49.002;8.472;2023-07-16T12:43:48;28.20;57.20
14735;DHT22;7458;49.002;8.472;2023-07-16T12:46:14;27.50;58.00
14735;DHT22;7458;49.002;8.472;2023-07-16T12:48:39;27.40;58.60
14735;DHT22;7458;49.002;8.472;2023-07-16T12:51:05;27.50;58.00
14735;DHT22;7458;49.002;8.472;2023-07-16T12:53:32;27.50;58.20
14735;DHT22;7458;49.002;8.472;2023-07-16T12:55:58;27.50;58.20
14735;DHT22;7458;49.002;8.472;2023-07-16T12:58:28;27.60;58.30
14735;DHT22;7458;49.002;8.472;2023-07-16T13:00:54;27.70;71.40
14735;DHT22;7458;49.002;8.472;2023-07-16T13:03:19;27.70;58.90
14735;DHT22;7458;49.002;8.472;2023-07-16T13:05:47;27.70;58.30
14735;DHT22;7458;49.002;8.472;2023-07-16T13:08:13;30.20;57.90
14735;DHT22;7458;49.002;8.472;2023-07-16T13:10:39;27.40;56.70
14735;DHT22;7458;49.002;8.472;2023-07-16T13:13:05;27.60;57.10
14735;DHT22;7458;49.002;8.472;2023-07-16T13:15:33;27.40;68.40
14735;DHT22;7458;49.002;8.472;2023-07-16T13:17:59;27.50;56.50
14735;DHT22;7458;49.002;8.472;2023-07-16T13:20:25;27.40;57.00
14735;DHT22;7458;49.002;8.472;2023-07-16T13:22:50;27.40;58.20
14735;DHT22;7458;49.002;8.472;2023-07-16T13:25:17;27.40;57.80
14735;DHT22;7458;49.002;8.472;2023-07-16T13:27:43;27.30;58.50
14735;DHT22;7458;49.002;8.472;2023-07-16T13:30:09;27.20;57.70
14735;DHT22;7458;49.002;8.472;2023-07-16T13:32:35;27.30;57.90
14735;DHT22;7458;49.002;8.472;2023-07-16T13:35:00;27.40;57.20
14735;DHT22;7458;49.002;8.472;2023-07-16T13:37:26;27.30;57.10
14735;DHT22;7458;49.002;8.472;2023-07-16T13:39:54;27.40;57.40
14735;DHT22;7458;49.002;8.472;2023-07-16T13:42:19;27.40;57.00
14735;DHT22;7458;49.002;8.472;2023-07-16T13:44:45;27.10;56.50
14735;DHT22;7458;49.002;8.472;2023-07-16T13:47:11;27.20;57.40
14735;DHT22;7458;49.002;8.472;2023-07-16T13:49:36;27.10;57.40
14735;DHT22;7458;49.002;8.472;2023-07-16T13:52:03;27.10;58.50
14735;DHT22;7458;49.002;8.472;2023-07-16T13:54:29;27.00;58.50
14735;DHT22;7458;49.002;8.472;2023-07-16T13:56:54;27.00;58.00
14735;DHT22;7458;49.002;8.472;2023-07-16T13:59:20;26.80;58.50
14735;DHT22;7458;49.002;8.472;2023-07-16T14:01:46;26.70;59.80
14735;DHT22;7458;49.002;8.472;2023-07-16T14:04:12;26.70;58.50
14735;DHT22;7458;49.002;8.472;2023-07-16T14:06:38;26.70;58.40
14735;DHT22;7458;49.002;8.472;2023-07-16T14:09:04;26.60;59.30
14735;DHT22;7458;49.002;8.472;2023-07-16T14:11:30;27.00;72.20
14735;DHT22;7458;49.002;8.472;2023-07-16T14:13:56;26.80;59.00
14735;DHT22;7458;49.002;8.472;2023-07-16T14:16:22;26.90;59.00
14735;DHT22;7458;49.002;8.472;2023-07-16T14:18:52;26.90;57.80
14735;DHT22;7458;49.002;8.472;2023-07-16T14:21:19;26.80;58.10
14735;DHT22;7458;49.002;8.472;2023-07-16T14:23:45;27.00;58.10
14735;DHT22;7458;49.002;8.472;2023-07-16T14:26:15;27.00;57.00
14735;DHT22;7458;49.002;8.472;2023-07-16T14:28:40;27.10;57.60
14735;DHT22;7458;49.002;8.472;2023-07-16T14:31:06;27.20;58.20
14735;DHT22;7458;49.002;8.472;2023-07-16T14:33:32;27.20;70.10
14735;DHT22;7458;49.002;8.472;2023-07-16T14:35:58;27.10;57.90
14735;DHT22;7458;49.002;8.472;2023-07-16T14:38:24;29.00;57.90
14735;DHT22;7458;49.002;8.472;2023-07-16T14:40:50;26.90;68.00
14735;DHT22;7458;49.002;8.472;2023-07-16T14:43:17;27.30;57.10
14735;DHT22;7458;49.002;8.472;2023-07-16T14:45:44;27.30;57.80
14735;DHT22;7458;49.002;8.472;2023-07-16T14:48:09;27.30;58.50
14735;DHT22;7458;49.002;8.472;2023-07-16T14:50:35;27.60;58.10
14735;DHT22;7458;49.002;8.472;2023-07-16T14:53:01;27.40;56.90
14735;DHT22;7458;49.002;8.472;2023-07-16T14:55:27;27.40;56.00
14735;DHT22;7458;49.002;8.472;2023-07-16T14:57:53;27.20;56.60
14735;DHT22;7458;49.002;8.472;2023-07-16T15:00:19;27.30;56.70
14735;DHT22;7458;49.002;8.472;2023-07-16T15:02:45;27.40;56.80
14735;DHT22;7458;49.002;8.472;2023-07-16T15:05:11;27.50;57.00
14735;DHT22;7458;49.002;8.472;2023-07-16T15:07:37;27.50;56.90
14735;DHT22;7458;49.002;8.472;2023-07-16T15:10:03;27.50;57.50
14735;DHT22;7458;49.002;8.472;2023-07-16T15:12:30;27.50;56.30
14735;DHT22;7458;49.002;8.472;2023-07-16T15:14:57;27.30;56.70
14735;DHT22;7458;49.002;8.472;2023-07-16T15:17:23;27.30;56.50
14735;DHT22;7458;49.002;8.472;2023-07-16T15:19:50;27.10;57.20
14735;DHT22;7458;49.002;8.472;2023-07-16T15:22:16;27.10;56.60
14735;DHT22;7458;49.002;8.472;2023-07-16T15:24:48;27.10;56.00
14735;DHT22;7458;49.002;8.472;2023-07-16T15:27:15;27.10;56.90
14735;DHT22;7458;49.002;8.472;2023-07-16T15:29:41;26.70;67.10
14735;DHT22;7458;49.002;8.472;2023-07-16T15:32:07;26.60;68.60
14735;DHT22;7458;49.002;8.472;2023-07-16T15:34:33;26.80;57.40
14735;DHT22;7458;49.002;8.472;2023-07-16T15:36:59;26.70;57.50
14735;DHT22;7458;49.002;8.472;2023-07-16T15:39:25;26.10;68.20
14735;DHT22;7458;49.002;8.472;2023-07-16T15:41:50;26.70;68.40
14735;DHT22;7458;49.002;8.472;2023-07-16T15:44:17;26.60;57.10
14735;DHT22;7458;49.002;8.472;2023-07-16T15:46:43;26.60;57.20
14735;DHT22;7458;49.002;8.472;2023-07-16T15:49:08;26.60;57.20
14735;DHT22;7458;49.002;8.472;2023-07-16T15:51:36;26.60;58.10
14735;DHT22;7458;49.002;8.472;2023-07-16T15:54:03;26.60;57.50
14735;DHT22;7458;49.002;8.472;2023-07-16T15:56:31;26.70;57.10
14735;DHT22;7458;49.002;8.472;2023-07-16T15:58:57;26.70;57.60
14735;DHT22;7458;49.002;8.472;2023-07-16T16:01:23;26.80;69.10
14735;DHT22;7458;49.002;8.472;2023-07-16T16:03:48;26.70;57.90
14735;DHT22;7458;49.002;8.472;2023-07-16T16:06:14;26.60;58.10
14735;DHT22;7458;49.002;8.472;2023-07-16T16:08:40;26.70;57.90
14735;DHT22;7458;49.002;8.472;2023-07-16T16:11:06;26.50;58.00
14735;DHT22;7458;49.002;8.472;2023-07-16T16:13:31;26.50;58.10
14735;DHT22;7458;49.002;8.472;2023-07-16T16:15:57;26.50;58.50
14735;DHT22;7458;49.002;8.472;2023-07-16T16:18:24;26.60;58.20
14735;DHT22;7458;49.002;8.472;2023-07-16T16:20:50;26.70;69.40
14735;DHT22;7458;49.002;8.472;2023-07-16T16:23:16;26.60;70.30
14735;DHT22;7458;49.002;8.472;2023-07-16T16:25:43;26.40;70.10
14735;DHT22;7458;49.002;8.472;2023-07-16T16:28:10;26.50;69.80
14735;DHT22;7458;49.002;8.472;2023-07-16T16:30:39;26.60;58.50
14735;DHT22;7458;49.002;8.472;2023-07-16T16:33:05;26.60;58.40
14735;DHT22;7458;49.002;8.472;2023-07-16T16:35:37;26.10;58.20
14735;DHT22;7458;49.002;8.472;2023-07-16T16:40:34;26.50;70.10
14735;DHT22;7458;49.002;8.472;2023-07-16T16:43:00;26.50;58.50
14735;DHT22;7458;49.002;8.472;2023-07-16T16:45:26;26.60;70.00
14735;DHT22;7458;49.002;8.472;2023-07-16T16:47:52;26.60;58.80
14735;DHT22;7458;49.002;8.472;2023-07-16T16:50:18;26.30;70.50
14735;DHT22;7458;49.002;8.472;2023-07-16T16:52:44;26.40;59.50
14735;DHT22;7458;49.002;8.472;2023-07-16T17:00:03;26.50;70.60
14735;DHT22;7458;49.002;8.472;2023-07-16T17:04:56;26.00;70.50
14735;DHT22;7458;49.002;8.472;2023-07-16T17:07:22;26.30;70.40
14735;DHT22;7458;49.002;8.472;2023-07-16T17:14:41;26.50;69.90
14735;DHT22;7458;49.002;8.472;2023-07-16T17:17:13;26.70;69.40
14735;DHT22;7458;49.002;8.472;2023-07-16T17:19:41;26.60;70.10
14735;DHT22;7458;49.002;8.472;2023-07-16T17:22:07;26.60;58.90
14735;DHT22;7458;49.002;8.472;2023-07-16T17:24:33;26.40;69.80
14735;DHT22;7458;49.002;8.472;2023-07-16T17:26:59;26.70;63.70
14735;DHT22;7458;49.002;8.472;2023-07-16T17:29:25;26.80;59.50
14735;DHT22;7458;49.002;8.472;2023-07-16T17:31:51;26.80;70.70
14735;DHT22;7458;49.002;8.472;2023-07-16T17:34:16;23.10;58.30
14735;DHT22;7458;49.002;8.472;2023-07-16T17:44:03;26.60;70.60
14735;DHT22;7458;49.002;8.472;2023-07-16T17:51:24;26.40;58.60
14735;DHT22;7458;49.002;8.472;2023-07-16T17:56:16;26.20;70.70
14735;DHT22;7458;49.002;8.472;2023-07-16T17:58:42;26.20;60.20
14735;DHT22;7458;49.002;8.472;2023-07-16T18:01:07;26.40;71.00
14735;DHT22;7458;49.002;8.472;2023-07-16T18:03:34;26.00;71.20
14735;DHT22;7458;49.002;8.472;2023-07-16T18:06:00;26.30;71.80
14735;DHT22;7458;49.002;8.472;2023-07-16T18:08:27;26.20;71.20
14735;DHT22;7458;49.002;8.472;2023-07-16T18:10:53;26.00;71.00
14735;DHT22;7458;49.002;8.472;2023-07-16T18:13:21;26.20;59.90
14735;DHT22;7458;49.002;8.472;2023-07-16T18:15:48;26.20;70.80
14735;DHT22;7458;49.002;8.472;2023-07-16T18:18:13;26.20;67.70
14735;DHT22;7458;49.002;8.472;2023-07-16T18:20:39;26.10;70.20
14735;DHT22;7458;49.002;8.472;2023-07-16T18:23:06;25.90;70.30
14735;DHT22;7458;49.002;8.472;2023-07-16T18:25:31;26.20;71.00
14735;DHT22;7458;49.002;8.472;2023-07-16T18:27:57;26.10;60.00